• Join FlightAware (Why Join?)
  • Login
  • US Flag 
11:30AM EDT


 

Airport Tracker/Info


-or-


 

Live Flight TrackerFlight Track Log ✈ SCX8700 ✈ 08-Mar-2014 ✈ KMSP - KFAR

Flight Track Log - Related Links

Times and Time Zones

All times are in EST time to prevent confusion due to time zone crossing. See the SCX8700 flight status page for this flight to view local times or setup timezone preferences in your user account.

Time Position Orientation Groundspeed Altitude Reporting Facility
EST Latitude Longitude Course Direction KTS MPH feet Rate Location/Type
05:05PM 44.9167 -93.2833 301° West 191 220 4,900  Level Minneapolis TRACON
05:06PM 44.9467 -93.3747 295° West 243 280 7,000 2,400 Climbing Minneapolis Center
05:07PM 44.9597 -93.4914 279° West 252 290 10,600 3,240 Climbing Minneapolis Center
05:08PM 45.0075 -93.5772 308° West 310 357 13,700 3,300 Climbing Minneapolis Center
05:09PM 45.0736 -93.6575 319° Northwest 316 364 17,400 3,420 Climbing Minneapolis Center
05:10PM 45.2056 -93.5533 301° West  Level FlightAware Approximate
05:10PM 45.1433 -93.7433 319° Northwest 329 379 20,700  Level Minneapolis Center
05:11PM 45.2136 -93.8331 318° Northwest 335 386 23,800 2,760 Climbing Minneapolis Center
05:12PM 45.2797 -93.9453 310° West 366 421 26,400 2,820 Climbing Minneapolis Center
05:13PM 45.3469 -94.0575 310° West 373 429 29,600 2,700 Climbing Minneapolis Center
05:14PM 45.4108 -94.1653 310° West 364 419 32,000 2,040 Climbing Minneapolis Center
05:15PM 45.4869 -94.2919 311° West 356 410 33,800 960 Climbing Minneapolis Center
05:16PM 45.5494 -94.4000 310° West 352 405 34,000 60 Climbing Minneapolis Center
05:18PM 45.6153 -94.5097 311° West 361 415 34,000  Level Minneapolis Center
05:19PM 45.6811 -94.6214 310° West 364 419 34,000 -420 Level Minneapolis Center
05:20PM 45.7456 -94.7328 310° West 365 420 33,200 -900 Descending Minneapolis Center
05:21PM 45.8075 -94.8378 310° West 351 404 32,200 -1,020 Descending Minneapolis Center
05:22PM 45.8672 -94.9389 310° West 341 392 31,200 -1,020 Descending Minneapolis Center
05:23PM 45.9256 -95.0419 309° West 333 383 30,200 -1,020 Descending Minneapolis Center
05:24PM 45.9875 -95.1483 310° West 333 383 29,200 -1,020 Descending Minneapolis Center
05:25PM 46.0450 -95.2492 309° West 331 381 28,200 -1,020 Descending Minneapolis Center
05:26PM 46.1019 -95.3481 310° West 326 375 27,200 -1,080 Descending Minneapolis Center
05:27PM 46.1689 -95.4647 310° West 317 365 26,000 -1,080 Descending Minneapolis Center
05:28PM 46.2231 -95.5603 309° West 313 360 25,000 -1,380 Descending Minneapolis Center
05:29PM 46.2761 -95.6542 309° West 308 354 23,200 -1,740 Descending Minneapolis Center
05:30PM 46.3275 -95.7444 310° West 296 341 21,500 -1,680 Descending Minneapolis Center
05:31PM 46.3758 -95.8311 309° West 282 325 19,800 -1,740 Descending Minneapolis Center
05:32PM 46.4264 -95.9200 310° West 274 315 18,000 -1,680 Descending Minneapolis Center
05:33PM 46.4769 -96.0119 309° West 276 318 16,400 -1,680 Descending Minneapolis Center
05:34PM 46.5306 -96.0958 313° West 273 314 14,600 -1,980 Descending Minneapolis Center
05:35PM 46.5811 -96.1692 315° West 269 310 12,400 -2,100 Descending Minneapolis Center
05:36PM 46.6328 -96.2469 314° West 260 299 10,300 -2,100 Descending Minneapolis Center
05:37PM 46.6831 -96.3222 314° West 252 290 8,100 -2,100 Descending Minneapolis Center
05:38PM 46.7333 -96.3967 315° West 251 289 6,100 -1,080 Descending Minneapolis Center
05:39PM 46.7772 -96.4639 314° West 241 277 6,000 -60 Descending Minneapolis Center
05:40PM 46.8208 -96.5292 314° West 218 251 6,000 -540 Level Minneapolis Center
05:41PM 46.8703 -96.5692 331° Northwest 208 239 5,000 -540 Descending Minneapolis Center
05:42PM 46.9283 -96.5844 350° North 206 237 5,000  Level Minneapolis Center
05:43PM 46.9794 -96.5972 350° North 190 219 5,000 -420 Level Minneapolis Center
05:44PM 47.0264 -96.6089 350° North 169 194 4,200 -1,080 Descending Minneapolis Center
05:45PM 47.0667 -96.6483 326° Northwest 171 197 2,800 -840 Descending Minneapolis Center
05:46PM 47.0944 -96.7039 306° West 169 194 2,500 -180 Descending Minneapolis Center
05:47PM 47.0789 -96.7536 245° Southwest 154 177 2,500  Level Minneapolis Center
05:48PM 47.0419 -96.7911 215° Southwest 151 174 2,500  Level Minneapolis Center
05:49PM 47.0064 -96.8147 204° Southwest 135 155 2,500 -360 Level Minneapolis Center
05:50PM 46.9728 -96.8156 181° South 120 138 1,800 -660 Descending Minneapolis Center
05:51PM 46.9417 -96.8158 180° South 119 137 1,200 -600 Descending Minneapolis Center